sensor_id;sensor_type;location;lat;lon;timestamp;pressure;altitude;pressure_sealevel;temperature;humidity
13033;BME280;6583;42.632;23.298;2023-11-21T00:01:10;70931.06;;;-146.40;75.92
13033;BME280;6583;42.632;23.298;2023-11-21T00:03:37;70920.94;;;-146.40;76.17
13033;BME280;6583;42.632;23.298;2023-11-21T00:06:04;70918.94;;;-146.40;76.55
13033;BME280;6583;42.632;23.298;2023-11-21T00:08:35;70914.88;;;-146.40;77.18
13033;BME280;6583;42.632;23.298;2023-11-21T00:11:03;70910.84;;;-146.40;76.96
13033;BME280;6583;42.632;23.298;2023-11-21T00:13:31;70910.84;;;-146.40;76.25
13033;BME280;6583;42.632;23.298;2023-11-21T00:15:58;70910.84;;;-146.40;77.03
13033;BME280;6583;42.632;23.298;2023-11-21T00:18:25;70918.94;;;-146.40;77.04
13033;BME280;6583;42.632;23.298;2023-11-21T00:20:52;70918.94;;;-146.40;77.36
13033;BME280;6583;42.632;23.298;2023-11-21T00:23:18;70929.03;;;-146.40;77.51
13033;BME280;6583;42.632;23.298;2023-11-21T00:25:45;70931.06;;;-146.40;77.97
13033;BME280;6583;42.632;23.298;2023-11-21T00:28:13;70929.03;;;-146.40;78.20
13033;BME280;6583;42.632;23.298;2023-11-21T00:30:40;70927.03;;;-146.40;78.13
13033;BME280;6583;42.632;23.298;2023-11-21T00:33:07;70922.97;;;-146.40;78.69
13033;BME280;6583;42.632;23.298;2023-11-21T00:35:34;70918.94;;;-146.40;78.03
13033;BME280;6583;42.632;23.298;2023-11-21T00:38:00;70906.78;;;-146.40;77.34
13033;BME280;6583;42.632;23.298;2023-11-21T00:40:28;70916.91;;;-146.40;76.06
13033;BME280;6583;42.632;23.298;2023-11-21T00:42:56;70912.84;;;-146.40;76.59
13033;BME280;6583;42.632;23.298;2023-11-21T00:45:24;70925.00;;;-146.40;77.69
13033;BME280;6583;42.632;23.298;2023-11-21T00:47:51;70925.00;;;-146.40;78.31
13033;BME280;6583;42.632;23.298;2023-11-21T00:50:18;70914.88;;;-146.40;78.09
13033;BME280;6583;42.632;23.298;2023-11-21T00:52:44;70906.78;;;-146.40;76.65
13033;BME280;6583;42.632;23.298;2023-11-21T00:55:11;70904.75;;;-146.40;76.96
13033;BME280;6583;42.632;23.298;2023-11-21T00:57:38;70900.72;;;-146.40;76.92
13033;BME280;6583;42.632;23.298;2023-11-21T01:00:06;70912.84;;;-146.40;76.80
13033;BME280;6583;42.632;23.298;2023-11-21T01:02:37;70914.88;;;-146.40;77.30
13033;BME280;6583;42.632;23.298;2023-11-21T01:05:05;70910.84;;;-146.40;77.22
13033;BME280;6583;42.632;23.298;2023-11-21T01:07:33;70920.94;;;-146.40;77.09
13033;BME280;6583;42.632;23.298;2023-11-21T01:09:59;70922.97;;;-146.40;77.80
13033;BME280;6583;42.632;23.298;2023-11-21T01:12:26;70922.97;;;-146.40;78.64
13033;BME280;6583;42.632;23.298;2023-11-21T01:14:53;70910.84;;;-146.40;79.26
13033;BME280;6583;42.632;23.298;2023-11-21T01:17:20;70906.78;;;-146.40;78.39
13033;BME280;6583;42.632;23.298;2023-11-21T01:19:49;70904.75;;;-146.40;76.71
13033;BME280;6583;42.632;23.298;2023-11-21T01:22:16;70914.88;;;-146.40;76.80
13033;BME280;6583;42.632;23.298;2023-11-21T01:24:43;70925.00;;;-146.40;77.56
13033;BME280;6583;42.632;23.298;2023-11-21T01:27:10;70922.97;;;-146.40;77.04
13033;BME280;6583;42.632;23.298;2023-11-21T01:29:36;70918.94;;;-146.40;77.92
13033;BME280;6583;42.632;23.298;2023-11-21T01:32:04;70912.84;;;-146.40;78.27
13033;BME280;6583;42.632;23.298;2023-11-21T01:34:32;70906.78;;;-146.40;76.53
13033;BME280;6583;42.632;23.298;2023-11-21T01:37:00;70904.75;;;-146.40;76.19
13033;BME280;6583;42.632;23.298;2023-11-21T01:39:29;70890.59;;;-146.40;76.07
13033;BME280;6583;42.632;23.298;2023-11-21T01:41:57;70882.50;;;-146.40;74.82
13033;BME280;6583;42.632;23.298;2023-11-21T01:44:23;70908.81;;;-146.40;75.18
13033;BME280;6583;42.632;23.298;2023-11-21T01:46:50;70922.97;;;-146.40;75.63
13033;BME280;6583;42.632;23.298;2023-11-21T01:49:19;70929.03;;;-146.40;76.98
13033;BME280;6583;42.632;23.298;2023-11-21T01:51:48;70927.03;;;-146.40;76.92
13033;BME280;6583;42.632;23.298;2023-11-21T01:54:17;70916.91;;;-146.40;77.34
13033;BME280;6583;42.632;23.298;2023-11-21T01:56:46;70902.75;;;-146.40;77.21
13033;BME280;6583;42.632;23.298;2023-11-21T01:59:15;70898.69;;;-146.40;77.04
13033;BME280;6583;42.632;23.298;2023-11-21T02:01:44;70886.56;;;-146.40;75.09
13033;BME280;6583;42.632;23.298;2023-11-21T02:04:12;70880.47;;;-146.40;74.72
13033;BME280;6583;42.632;23.298;2023-11-21T02:06:38;70914.88;;;-146.40;73.88
13033;BME280;6583;42.632;23.298;2023-11-21T02:09:05;70927.03;;;-146.40;74.97
13033;BME280;6583;42.632;23.298;2023-11-21T02:11:33;70914.88;;;-146.40;76.11
13033;BME280;6583;42.632;23.298;2023-11-21T02:14:00;70914.88;;;-146.40;75.12
13033;BME280;6583;42.632;23.298;2023-11-21T02:16:27;70918.94;;;-146.40;75.00
13033;BME280;6583;42.632;23.298;2023-11-21T02:18:57;70906.78;;;-146.40;74.48
13033;BME280;6583;42.632;23.298;2023-11-21T02:21:24;70910.84;;;-146.40;73.57
13033;BME280;6583;42.632;23.298;2023-11-21T02:23:53;70931.06;;;-146.40;74.09
13033;BME280;6583;42.632;23.298;2023-11-21T02:26:20;70933.09;;;-146.40;75.05
13033;BME280;6583;42.632;23.298;2023-11-21T02:28:47;70935.13;;;-146.40;76.68
13033;BME280;6583;42.632;23.298;2023-11-21T02:31:14;70927.03;;;-146.40;76.27
13033;BME280;6583;42.632;23.298;2023-11-21T02:33:41;70916.91;;;-146.40;76.83
13033;BME280;6583;42.632;23.298;2023-11-21T02:36:09;70902.75;;;-146.40;75.93
13033;BME280;6583;42.632;23.298;2023-11-21T02:38:36;70894.66;;;-146.40;74.93
13033;BME280;6583;42.632;23.298;2023-11-21T02:41:04;70908.81;;;-146.40;72.86
13033;BME280;6583;42.632;23.298;2023-11-21T02:43:31;70910.84;;;-146.40;73.42
13033;BME280;6583;42.632;23.298;2023-11-21T02:45:57;70935.13;;;-146.40;73.91
13033;BME280;6583;42.632;23.298;2023-11-21T02:48:24;70947.25;;;-146.40;74.98
13033;BME280;6583;42.632;23.298;2023-11-21T02:50:51;70943.22;;;-146.40;76.20
13033;BME280;6583;42.632;23.298;2023-11-21T02:53:18;70953.31;;;-146.40;76.01
13033;BME280;6583;42.632;23.298;2023-11-21T02:55:45;70951.31;;;-146.40;77.46
13033;BME280;6583;42.632;23.298;2023-11-21T02:58:13;70955.34;;;-146.40;76.66
13033;BME280;6583;42.632;23.298;2023-11-21T03:00:40;70953.31;;;-146.40;75.77
13033;BME280;6583;42.632;23.298;2023-11-21T03:03:07;70949.28;;;-146.40;75.86
13033;BME280;6583;42.632;23.298;2023-11-21T03:05:33;70951.31;;;-146.40;75.97
13033;BME280;6583;42.632;23.298;2023-11-21T03:08:01;70953.31;;;-146.40;76.24
13033;BME280;6583;42.632;23.298;2023-11-21T03:10:28;70961.41;;;-146.40;77.53
13033;BME280;6583;42.632;23.298;2023-11-21T03:12:55;70951.31;;;-146.40;78.12
13033;BME280;6583;42.632;23.298;2023-11-21T03:15:24;70957.38;;;-146.40;76.98
13033;BME280;6583;42.632;23.298;2023-11-21T03:17:51;70963.44;;;-146.40;77.88
13033;BME280;6583;42.632;23.298;2023-11-21T03:20:17;70955.34;;;-146.40;76.83
13033;BME280;6583;42.632;23.298;2023-11-21T03:22:44;70963.44;;;-146.40;77.15
13033;BME280;6583;42.632;23.298;2023-11-21T03:25:11;70967.50;;;-146.40;78.17
13033;BME280;6583;42.632;23.298;2023-11-21T03:27:38;70973.56;;;-146.40;77.53
13033;BME280;6583;42.632;23.298;2023-11-21T03:30:07;70975.59;;;-146.40;77.25
13033;BME280;6583;42.632;23.298;2023-11-21T03:32:36;70993.78;;;-146.40;77.68
13033;BME280;6583;42.632;23.298;2023-11-21T03:35:04;70989.75;;;-146.40;78.37
13033;BME280;6583;42.632;23.298;2023-11-21T03:37:31;70987.72;;;-146.40;78.57
13033;BME280;6583;42.632;23.298;2023-11-21T03:39:58;70985.69;;;-146.40;79.65
13033;BME280;6583;42.632;23.298;2023-11-21T03:42:25;70975.59;;;-146.40;80.13
13033;BME280;6583;42.632;23.298;2023-11-21T03:44:52;70951.31;;;-146.40;79.74
13033;BME280;6583;42.632;23.298;2023-11-21T03:47:18;70931.06;;;-146.40;79.10
13033;BME280;6583;42.632;23.298;2023-11-21T03:49:47;70910.84;;;-146.40;77.88
13033;BME280;6583;42.632;23.298;2023-11-21T03:52:13;70902.75;;;-146.40;76.86
13033;BME280;6583;42.632;23.298;2023-11-21T03:54:40;70894.66;;;-146.40;75.97
13033;BME280;6583;42.632;23.298;2023-11-21T03:57:08;70886.56;;;-146.40;75.17
13033;BME280;6583;42.632;23.298;2023-11-21T03:59:35;70880.47;;;-146.40;74.50
13033;BME280;6583;42.632;23.298;2023-11-21T04:02:03;70868.34;;;-146.40;73.83
13033;BME280;6583;42.632;23.298;2023-11-21T04:04:30;70868.34;;;-146.40;73.33
13033;BME280;6583;42.632;23.298;2023-11-21T04:06:58;70862.28;;;-146.40;73.09
13033;BME280;6583;42.632;23.298;2023-11-21T04:09:25;70872.38;;;-146.40;72.09
13033;BME280;6583;42.632;23.298;2023-11-21T04:11:52;70904.75;;;-146.40;73.87
13033;BME280;6583;42.632;23.298;2023-11-21T04:14:18;70916.91;;;-146.40;74.57
13033;BME280;6583;42.632;23.298;2023-11-21T04:16:45;70916.91;;;-146.40;76.42
13033;BME280;6583;42.632;23.298;2023-11-21T04:19:12;70904.75;;;-146.40;76.60
13033;BME280;6583;42.632;23.298;2023-11-21T04:21:40;70900.72;;;-146.40;76.65
13033;BME280;6583;42.632;23.298;2023-11-21T04:24:08;70890.59;;;-146.40;76.47
13033;BME280;6583;42.632;23.298;2023-11-21T04:26:35;70900.72;;;-146.40;74.83
13033;BME280;6583;42.632;23.298;2023-11-21T04:29:02;70914.88;;;-146.40;75.47
13033;BME280;6583;42.632;23.298;2023-11-21T04:31:29;70910.84;;;-146.40;76.71
13033;BME280;6583;42.632;23.298;2023-11-21T04:33:57;70914.88;;;-146.40;75.39
13033;BME280;6583;42.632;23.298;2023-11-21T04:36:23;70916.91;;;-146.40;75.84
13033;BME280;6583;42.632;23.298;2023-11-21T04:38:50;70904.75;;;-146.40;75.56
13033;BME280;6583;42.632;23.298;2023-11-21T04:41:18;70914.88;;;-146.40;74.82
13033;BME280;6583;42.632;23.298;2023-11-21T04:43:45;70927.03;;;-146.40;74.89
13033;BME280;6583;42.632;23.298;2023-11-21T04:46:12;70918.94;;;-146.40;75.38
13033;BME280;6583;42.632;23.298;2023-11-21T04:48:38;70916.91;;;-146.40;75.53
13033;BME280;6583;42.632;23.298;2023-11-21T04:51:05;70916.91;;;-146.40;75.28
13033;BME280;6583;42.632;23.298;2023-11-21T04:53:32;70925.00;;;-146.40;75.34
13033;BME280;6583;42.632;23.298;2023-11-21T04:56:00;70931.06;;;-146.40;75.88
13033;BME280;6583;42.632;23.298;2023-11-21T04:58:28;70935.13;;;-146.40;76.62
13033;BME280;6583;42.632;23.298;2023-11-21T05:00:55;70933.09;;;-146.40;76.82
13033;BME280;6583;42.632;23.298;2023-11-21T05:03:21;70943.22;;;-146.40;76.85
13033;BME280;6583;42.632;23.298;2023-11-21T05:05:49;70947.25;;;-146.40;77.39
13033;BME280;6583;42.632;23.298;2023-11-21T05:08:16;70949.28;;;-146.40;77.59
13033;BME280;6583;42.632;23.298;2023-11-21T05:10:44;70951.31;;;-146.40;78.05
13033;BME280;6583;42.632;23.298;2023-11-21T05:13:11;70951.31;;;-146.40;78.40
13033;BME280;6583;42.632;23.298;2023-11-21T05:15:39;70947.25;;;-146.40;78.75
13033;BME280;6583;42.632;23.298;2023-11-21T05:18:06;70955.34;;;-146.40;78.51
13033;BME280;6583;42.632;23.298;2023-11-21T05:20:33;70947.25;;;-146.40;79.17
13033;BME280;6583;42.632;23.298;2023-11-21T05:23:00;70949.28;;;-146.40;79.64
13033;BME280;6583;42.632;23.298;2023-11-21T05:25:26;70945.22;;;-146.40;79.93
13033;BME280;6583;42.632;23.298;2023-11-21T05:27:53;70927.03;;;-146.40;79.64
13033;BME280;6583;42.632;23.298;2023-11-21T05:30:21;70929.03;;;-146.40;79.27
13033;BME280;6583;42.632;23.298;2023-11-21T05:32:49;70918.94;;;-146.40;77.86
13033;BME280;6583;42.632;23.298;2023-11-21T05:35:16;70941.19;;;-146.40;78.86
13033;BME280;6583;42.632;23.298;2023-11-21T05:37:43;70945.22;;;-146.40;79.35
13033;BME280;6583;42.632;23.298;2023-11-21T05:40:11;70959.41;;;-146.40;79.83
13033;BME280;6583;42.632;23.298;2023-11-21T05:42:39;70967.50;;;-146.40;79.81
13033;BME280;6583;42.632;23.298;2023-11-21T05:45:07;70973.56;;;-146.40;80.38
13033;BME280;6583;42.632;23.298;2023-11-21T05:47:37;70975.59;;;-146.40;80.79
13033;BME280;6583;42.632;23.298;2023-11-21T05:50:07;70981.66;;;-146.40;81.47
13033;BME280;6583;42.632;23.298;2023-11-21T05:52:37;70973.56;;;-146.40;82.45
13033;BME280;6583;42.632;23.298;2023-11-21T05:55:05;70955.34;;;-146.40;82.83
13033;BME280;6583;42.632;23.298;2023-11-21T05:57:33;70947.25;;;-146.40;81.99
13033;BME280;6583;42.632;23.298;2023-11-21T06:00:03;70931.06;;;-146.40;79.96
13033;BME280;6583;42.632;23.298;2023-11-21T06:02:37;70922.97;;;-146.40;79.06
13033;BME280;6583;42.632;23.298;2023-11-21T06:05:05;70912.84;;;-146.40;78.89
13033;BME280;6583;42.632;23.298;2023-11-21T06:07:32;70912.84;;;-146.40;77.92
13033;BME280;6583;42.632;23.298;2023-11-21T06:10:00;70902.75;;;-146.40;78.33
13033;BME280;6583;42.632;23.298;2023-11-21T06:12:32;70918.94;;;-146.40;79.24
13033;BME280;6583;42.632;23.298;2023-11-21T06:15:01;70922.97;;;-146.40;79.22
13033;BME280;6583;42.632;23.298;2023-11-21T06:17:29;70935.13;;;-146.40;79.08
13033;BME280;6583;42.632;23.298;2023-11-21T06:19:56;70939.16;;;-146.40;79.54
13033;BME280;6583;42.632;23.298;2023-11-21T06:22:24;70943.22;;;-146.40;80.46
13033;BME280;6583;42.632;23.298;2023-11-21T06:24:51;70941.19;;;-146.40;81.42
13033;BME280;6583;42.632;23.298;2023-11-21T06:27:17;70943.22;;;-146.40;81.60
13033;BME280;6583;42.632;23.298;2023-11-21T06:29:44;70939.16;;;-146.40;82.27
13033;BME280;6583;42.632;23.298;2023-11-21T06:32:12;70935.13;;;-146.40;82.42
13033;BME280;6583;42.632;23.298;2023-11-21T06:34:41;70927.03;;;-146.40;81.80
13033;BME280;6583;42.632;23.298;2023-11-21T06:37:08;70918.94;;;-146.40;80.28
13033;BME280;6583;42.632;23.298;2023-11-21T06:39:36;70927.03;;;-146.40;80.49
13033;BME280;6583;42.632;23.298;2023-11-21T06:42:03;70927.03;;;-146.40;79.74
13033;BME280;6583;42.632;23.298;2023-11-21T06:44:30;70922.97;;;-146.40;79.70
13033;BME280;6583;42.632;23.298;2023-11-21T06:46:58;70925.00;;;-146.40;78.89
13033;BME280;6583;42.632;23.298;2023-11-21T06:49:25;70918.94;;;-146.40;78.35
13033;BME280;6583;42.632;23.298;2023-11-21T06:51:52;70912.84;;;-146.40;78.86
13033;BME280;6583;42.632;23.298;2023-11-21T06:54:20;70896.66;;;-146.40;78.67
13033;BME280;6583;42.632;23.298;2023-11-21T06:56:49;70896.66;;;-146.40;78.60
13033;BME280;6583;42.632;23.298;2023-11-21T06:59:16;70898.69;;;-146.40;77.25
13033;BME280;6583;42.632;23.298;2023-11-21T07:01:43;70908.81;;;-146.40;78.39
13033;BME280;6583;42.632;23.298;2023-11-21T07:04:10;70914.88;;;-146.40;79.33
13033;BME280;6583;42.632;23.298;2023-11-21T07:06:36;70914.88;;;-146.40;79.43
13033;BME280;6583;42.632;23.298;2023-11-21T07:09:03;70906.78;;;-146.40;79.41
13033;BME280;6583;42.632;23.298;2023-11-21T07:11:30;70898.69;;;-146.40;78.90
13033;BME280;6583;42.632;23.298;2023-11-21T07:13:59;70894.66;;;-146.40;78.84
13033;BME280;6583;42.632;23.298;2023-11-21T07:16:28;70916.91;;;-146.40;79.94
13033;BME280;6583;42.632;23.298;2023-11-21T07:18:55;70914.88;;;-146.40;80.86
13033;BME280;6583;42.632;23.298;2023-11-21T07:21:22;70900.72;;;-146.40;80.80
13033;BME280;6583;42.632;23.298;2023-11-21T07:23:49;70890.59;;;-146.40;81.61
13033;BME280;6583;42.632;23.298;2023-11-21T07:26:17;70882.50;;;-146.40;80.85
13033;BME280;6583;42.632;23.298;2023-11-21T07:28:43;70882.50;;;-146.40;80.13
13033;BME280;6583;42.632;23.298;2023-11-21T07:31:12;70874.41;;;-146.40;79.44
13033;BME280;6583;42.632;23.298;2023-11-21T07:33:39;70872.38;;;-146.40;79.54
13033;BME280;6583;42.632;23.298;2023-11-21T07:36:07;70874.41;;;-146.40;80.33
13033;BME280;6583;42.632;23.298;2023-11-21T07:38:33;70874.41;;;-146.40;79.70
13033;BME280;6583;42.632;23.298;2023-11-21T07:41:00;70862.28;;;-146.40;80.21
13033;BME280;6583;42.632;23.298;2023-11-21T07:43:28;70860.25;;;-146.40;80.11
13033;BME280;6583;42.632;23.298;2023-11-21T07:46:00;70854.19;;;-146.40;80.53
13033;BME280;6583;42.632;23.298;2023-11-21T07:48:29;70854.19;;;-146.40;80.17
13033;BME280;6583;42.632;23.298;2023-11-21T07:50:56;70862.28;;;-146.40;80.49
13033;BME280;6583;42.632;23.298;2023-11-21T07:53:23;70858.22;;;-146.40;80.46
13033;BME280;6583;42.632;23.298;2023-11-21T07:55:50;70846.09;;;-146.40;80.86
13033;BME280;6583;42.632;23.298;2023-11-21T07:58:17;70833.94;;;-146.40;80.53
13033;BME280;6583;42.632;23.298;2023-11-21T08:00:44;70821.81;;;-146.40;80.15
13033;BME280;6583;42.632;23.298;2023-11-21T08:03:10;70817.75;;;-146.40;80.80
13033;BME280;6583;42.632;23.298;2023-11-21T08:05:39;70815.72;;;-146.40;80.14
13033;BME280;6583;42.632;23.298;2023-11-21T08:08:05;70805.63;;;-146.40;79.66
13033;BME280;6583;42.632;23.298;2023-11-21T08:10:32;70797.53;;;-146.40;78.15
13033;BME280;6583;42.632;23.298;2023-11-21T08:13:01;70799.53;;;-146.40;78.79
13033;BME280;6583;42.632;23.298;2023-11-21T08:15:27;70797.53;;;-146.40;80.36
13033;BME280;6583;42.632;23.298;2023-11-21T08:17:54;70797.53;;;-146.40;79.97
13033;BME280;6583;42.632;23.298;2023-11-21T08:20:21;70791.44;;;-146.40;80.23
13033;BME280;6583;42.632;23.298;2023-11-21T08:22:49;70797.53;;;-146.40;79.60
13033;BME280;6583;42.632;23.298;2023-11-21T08:25:17;70813.72;;;-146.40;78.23
13033;BME280;6583;42.632;23.298;2023-11-21T08:27:45;70795.50;;;-146.40;78.13
13033;BME280;6583;42.632;23.298;2023-11-21T08:30:12;70797.53;;;-146.40;79.07
13033;BME280;6583;42.632;23.298;2023-11-21T08:32:39;70791.44;;;-146.40;79.16
13033;BME280;6583;42.632;23.298;2023-11-21T08:35:07;70781.34;;;-146.40;78.61
13033;BME280;6583;42.632;23.298;2023-11-21T08:37:34;70779.31;;;-146.40;78.05
13033;BME280;6583;42.632;23.298;2023-11-21T08:40:05;70803.59;;;-146.40;78.56
13033;BME280;6583;42.632;23.298;2023-11-21T08:42:34;70777.28;;;-146.40;78.46
13033;BME280;6583;42.632;23.298;2023-11-21T08:45:01;70769.19;;;-146.40;78.83
13033;BME280;6583;42.632;23.298;2023-11-21T08:47:28;70773.25;;;-146.40;78.43
13033;BME280;6583;42.632;23.298;2023-11-21T08:49:54;70759.06;;;-146.40;78.60
13033;BME280;6583;42.632;23.298;2023-11-21T08:52:23;70742.88;;;-146.40;78.42
13033;BME280;6583;42.632;23.298;2023-11-21T08:54:49;70744.91;;;-146.40;78.68
13033;BME280;6583;42.632;23.298;2023-11-21T08:57:22;70720.63;;;-146.40;80.28
13033;BME280;6583;42.632;23.298;2023-11-21T08:59:49;70710.50;;;-146.40;79.93
13033;BME280;6583;42.632;23.298;2023-11-21T09:02:20;70692.31;;;-146.40;78.64
13033;BME280;6583;42.632;23.298;2023-11-21T09:04:48;70684.22;;;-146.40;78.77
13033;BME280;6583;42.632;23.298;2023-11-21T09:07:14;70666.00;;;-146.40;78.64
13033;BME280;6583;42.632;23.298;2023-11-21T09:09:41;70659.94;;;-146.40;77.68
13033;BME280;6583;42.632;23.298;2023-11-21T09:12:08;70641.72;;;-146.40;77.63
13033;BME280;6583;42.632;23.298;2023-11-21T09:14:39;70663.97;;;-146.40;77.59
13033;BME280;6583;42.632;23.298;2023-11-21T09:17:05;70651.84;;;-146.40;77.50
13033;BME280;6583;42.632;23.298;2023-11-21T09:19:36;70643.75;;;-146.40;77.39
13033;BME280;6583;42.632;23.298;2023-11-21T09:22:03;70653.88;;;-146.40;77.30
13033;BME280;6583;42.632;23.298;2023-11-21T09:24:30;70635.66;;;-146.40;77.63
13033;BME280;6583;42.632;23.298;2023-11-21T09:26:57;70647.78;;;-146.40;76.29
13033;BME280;6583;42.632;23.298;2023-11-21T09:29:25;70635.66;;;-146.40;75.33
13033;BME280;6583;42.632;23.298;2023-11-21T09:31:53;70635.66;;;-146.40;75.83
13033;BME280;6583;42.632;23.298;2023-11-21T09:34:20;70643.75;;;-146.40;76.68
13033;BME280;6583;42.632;23.298;2023-11-21T09:36:47;70639.69;;;-146.40;76.79
13033;BME280;6583;42.632;23.298;2023-11-21T09:39:15;70647.78;;;-146.40;76.90
13033;BME280;6583;42.632;23.298;2023-11-21T09:41:44;70627.56;;;-146.40;77.94
13033;BME280;6583;42.632;23.298;2023-11-21T09:44:17;70609.34;;;-146.40;77.54
13033;BME280;6583;42.632;23.298;2023-11-21T09:46:47;70595.19;;;-146.40;77.86
13033;BME280;6583;42.632;23.298;2023-11-21T09:49:18;70579.00;;;-146.40;76.66
13033;BME280;6583;42.632;23.298;2023-11-21T09:51:45;70564.84;;;-146.40;77.24
13033;BME280;6583;42.632;23.298;2023-11-21T09:54:15;70542.59;;;-146.40;76.66
13033;BME280;6583;42.632;23.298;2023-11-21T09:56:42;70554.72;;;-146.40;75.11
13033;BME280;6583;42.632;23.298;2023-11-21T09:59:13;70570.91;;;-146.40;76.09
13033;BME280;6583;42.632;23.298;2023-11-21T10:01:41;70550.69;;;-146.40;76.00
13033;BME280;6583;42.632;23.298;2023-11-21T10:04:08;70536.50;;;-146.40;75.18
13033;BME280;6583;42.632;23.298;2023-11-21T10:06:39;70516.28;;;-146.40;74.28
13033;BME280;6583;42.632;23.298;2023-11-21T10:09:08;70510.22;;;-146.40;75.69
13033;BME280;6583;42.632;23.298;2023-11-21T10:11:40;70494.03;;;-146.40;74.71
13033;BME280;6583;42.632;23.298;2023-11-21T10:14:08;70481.88;;;-146.40;72.72
13033;BME280;6583;42.632;23.298;2023-11-21T10:16:38;70469.75;;;-146.40;72.18
13033;BME280;6583;42.632;23.298;2023-11-21T10:19:06;70467.72;;;-146.40;71.60
13033;BME280;6583;42.632;23.298;2023-11-21T10:21:38;70453.56;;;-146.40;70.05
13033;BME280;6583;42.632;23.298;2023-11-21T10:24:06;70455.59;;;-146.40;69.00
13033;BME280;6583;42.632;23.298;2023-11-21T10:26:33;70447.50;;;-146.40;69.50
13033;BME280;6583;42.632;23.298;2023-11-21T10:29:01;70431.31;;;-146.40;69.06
13033;BME280;6583;42.632;23.298;2023-11-21T10:31:30;70427.25;;;-146.40;70.03
13033;BME280;6583;42.632;23.298;2023-11-21T10:34:13;70417.16;;;-146.40;69.59
13033;BME280;6583;42.632;23.298;2023-11-21T10:36:41;70402.97;;;-146.40;68.20
13033;BME280;6583;42.632;23.298;2023-11-21T10:39:08;70394.91;;;-146.40;66.89
13033;BME280;6583;42.632;23.298;2023-11-21T10:41:36;70390.84;;;-146.40;66.96
13033;BME280;6583;42.632;23.298;2023-11-21T10:44:05;70392.88;;;-146.40;66.24
13033;BME280;6583;42.632;23.298;2023-11-21T10:46:34;70392.88;;;-146.40;64.99
13033;BME280;6583;42.632;23.298;2023-11-21T10:49:01;70409.06;;;-146.40;64.01
13033;BME280;6583;42.632;23.298;2023-11-21T10:51:28;70396.91;;;-146.40;65.16
13033;BME280;6583;42.632;23.298;2023-11-21T10:53:56;70390.84;;;-146.40;65.49
13033;BME280;6583;42.632;23.298;2023-11-21T10:56:26;70386.81;;;-146.40;66.87
13033;BME280;6583;42.632;23.298;2023-11-21T10:58:56;70372.63;;;-146.40;65.58
13033;BME280;6583;42.632;23.298;2023-11-21T11:01:26;70366.56;;;-146.40;64.71
13033;BME280;6583;42.632;23.298;2023-11-21T11:03:54;70384.78;;;-146.40;65.16
13033;BME280;6583;42.632;23.298;2023-11-21T11:06:24;70368.59;;;-146.40;66.00
13033;BME280;6583;42.632;23.298;2023-11-21T11:08:53;70374.66;;;-146.40;65.38
13033;BME280;6583;42.632;23.298;2023-11-21T11:11:21;70372.63;;;-146.40;65.60
13033;BME280;6583;42.632;23.298;2023-11-21T11:13:48;70354.44;;;-146.40;65.86
13033;BME280;6583;42.632;23.298;2023-11-21T11:16:15;70340.28;;;-146.40;66.39
13033;BME280;6583;42.632;23.298;2023-11-21T11:18:43;70340.28;;;-146.40;65.48
13033;BME280;6583;42.632;23.298;2023-11-21T11:21:22;70322.06;;;-146.40;64.81
13033;BME280;6583;42.632;23.298;2023-11-21T11:24:05;70311.94;;;-146.40;64.81
13033;BME280;6583;42.632;23.298;2023-11-21T11:26:45;70303.84;;;-146.40;64.89
13033;BME280;6583;42.632;23.298;2023-11-21T11:29:21;70309.91;;;-146.40;61.75
13033;BME280;6583;42.632;23.298;2023-11-21T11:32:00;70305.88;;;-146.40;61.90
13033;BME280;6583;42.632;23.298;2023-11-21T11:34:33;70299.81;;;-146.40;63.97
13033;BME280;6583;42.632;23.298;2023-11-21T11:37:03;70299.81;;;-146.40;62.39
13033;BME280;6583;42.632;23.298;2023-11-21T11:39:35;70291.72;;;-146.40;62.89
13033;BME280;6583;42.632;23.298;2023-11-21T11:42:07;70295.75;;;-146.40;62.80
13033;BME280;6583;42.632;23.298;2023-11-21T11:44:51;70336.22;;;-146.40;62.21
13033;BME280;6583;42.632;23.298;2023-11-21T11:47:25;70326.09;;;-146.40;63.62
13033;BME280;6583;42.632;23.298;2023-11-21T11:50:04;70324.09;;;-146.40;64.90
13033;BME280;6583;42.632;23.298;2023-11-21T11:52:37;70332.19;;;-146.40;66.68
13033;BME280;6583;42.632;23.298;2023-11-21T11:55:06;70332.19;;;-146.40;65.12
13033;BME280;6583;42.632;23.298;2023-11-21T11:57:37;70320.03;;;-146.40;62.52
13033;BME280;6583;42.632;23.298;2023-11-21T12:00:15;70311.94;;;-146.40;63.93
13033;BME280;6583;42.632;23.298;2023-11-21T12:02:45;70316.00;;;-146.40;64.61
13033;BME280;6583;42.632;23.298;2023-11-21T12:05:13;70328.13;;;-146.40;65.00
13033;BME280;6583;42.632;23.298;2023-11-21T12:07:44;70334.19;;;-146.40;63.75
13033;BME280;6583;42.632;23.298;2023-11-21T12:10:14;70338.25;;;-146.40;65.32
13033;BME280;6583;42.632;23.298;2023-11-21T12:12:48;70336.22;;;-146.40;67.79
13033;BME280;6583;42.632;23.298;2023-11-21T12:15:16;70340.28;;;-146.40;69.56
13033;BME280;6583;42.632;23.298;2023-11-21T12:17:44;70360.50;;;-146.40;66.83
13033;BME280;6583;42.632;23.298;2023-11-21T12:20:12;70364.53;;;-146.40;68.14
13033;BME280;6583;42.632;23.298;2023-11-21T12:22:44;70348.38;;;-146.40;71.04
13033;BME280;6583;42.632;23.298;2023-11-21T12:25:13;70338.25;;;-146.40;70.92
13033;BME280;6583;42.632;23.298;2023-11-21T12:27:42;70336.22;;;-146.40;71.60
13033;BME280;6583;42.632;23.298;2023-11-21T12:30:13;70358.47;;;-146.40;72.15
13033;BME280;6583;42.632;23.298;2023-11-21T12:32:41;70350.38;;;-146.40;73.68
13033;BME280;6583;42.632;23.298;2023-11-21T12:35:09;70348.38;;;-146.40;74.07
13033;BME280;6583;42.632;23.298;2023-11-21T12:37:36;70346.34;;;-146.40;73.75
13033;BME280;6583;42.632;23.298;2023-11-21T12:40:07;70340.28;;;-146.40;73.06
13033;BME280;6583;42.632;23.298;2023-11-21T12:42:37;70332.19;;;-146.40;72.83
13033;BME280;6583;42.632;23.298;2023-11-21T12:45:19;70332.19;;;-146.40;74.30